Latest Weather Observations for Wyndham Airport

IDW60801

Issued at 11:03 am WST Monday 24 April 2017 (issued every 30 minutes, with the page automatically refreshed every 10 minutes)

About weather observations | Map of weather stations | Latest weather observations for WA | Other Formats
Station Details ID: 001006 Name: WYNDHAM AERO Lat: -15.51 Lon: 128.15 Height: 3.8 m
Data from the previous 72 hours. | See also: Recent months at Wyndham Airport
Date/Time
WST
Temp
°C
App
Temp
°C
Dew
Point
°C
Rel
Hum
%
Delta-T
°C
Wind Press
QNH
hPa
Press
MSL
hPa
Rain since
9am
mm
Dir  Spd
km/h
Gust
km/h
Spd
kts
Gust
kts
24/11:00am 35.7 36.7 18.7 36 11.2 SSE 11 17 6 9 1011.2 1011.2 0.0
24/10:30am 35.3 36.9 19.2 38 10.6 SSE 9 19 5 10 1011.7 1011.7 0.0
24/10:00am 34.8 37.0 20.4 43 9.6 SSE 9 15 5 8 1012.5 1012.5 0.0
24/09:30am 34.4 37.3 21.8 48 8.6 SSW 9 17 5 9 1013.0 1013.0 0.0
24/09:00am 33.1 34.6 21.3 50 8.0 WSW 15 22 8 12 1013.1 1013.1 0.0
24/08:30am 32.6 34.4 21.8 53 7.3 SW 15 22 8 12 1013.1 1013.1 0.0
24/08:00am 31.2 34.2 21.9 57 6.3 SW 9 19 5 10 1013.0 1013.0 0.0
24/07:30am 29.6 33.3 21.5 61 5.4 SW 4 9 2 5 1012.9 1012.9 0.0
24/07:00am 28.7 33.4 22.0 67 4.5 CALM 0 0 0 0 1012.9 1012.9 0.0
24/06:30am 27.0 31.8 22.2 75 3.2 CALM 0 0 0 0 1012.5 1012.5 0.0
24/06:00am 24.8 28.9 20.7 78 2.7 CALM 0 0 0 0 1012.1 1012.1 0.0
24/05:30am 24.7 29.1 21.4 82 2.2 CALM 0 0 0 0 1011.6 1011.6 0.0
24/05:00am 24.4 28.6 20.9 81 2.3 CALM 0 0 0 0 1011.2 1011.2 0.0
24/04:30am 24.4 28.5 20.7 80 2.4 CALM 0 0 0 0 1011.0 1011.0 0.0
24/04:00am 24.3 28.3 20.6 80 2.4 CALM 0 0 0 0 1010.7 1010.7 0.0
24/03:30am 24.7 28.6 20.4 77 2.8 CALM 0 0 0 0 1010.7 1010.7 0.0
24/03:00am 24.7 28.8 20.8 79 2.6 CALM 0 0 0 0 1010.5 1010.5 0.0
24/02:30am 25.0 29.1 20.7 77 2.8 CALM 0 0 0 0 1010.5 1010.5 0.0
24/02:00am 25.2 29.5 21.1 78 2.7 CALM 0 0 0 0 1010.5 1010.5 0.0
24/01:30am 25.6 29.6 20.6 74 3.3 CALM 0 0 0 0 1010.6 1010.6 0.0
24/01:00am 25.5 29.2 19.9 71 3.6 CALM 0 0 0 0 1010.8 1010.8 0.0
24/12:30am 25.5 28.9 19.4 69 3.9 CALM 0 0 0 0 1011.0 1011.0 0.0
24/12:00am 26.0 29.8 20.1 70 3.8 CALM 0 0 0 0 1011.2 1011.2 0.0
 
Date/Time
WST
Temp
°C
App
Temp
°C
Dew
Point
°C
Rel
Hum
%
Delta-T
°C
Wind Press
QNH
hPa
Press
MSL
hPa
Rain since
9am
mm
Dir  Spd
km/h
Gust
km/h
Spd
kts
Gust
kts
23/11:30pm 26.3 29.9 19.7 67 4.3 CALM 0 0 0 0 1011.6 1011.6 0.0
23/11:00pm 27.0 30.5 19.6 64 4.8 CALM 0 0 0 0 1011.9 1011.9 0.0
23/10:30pm 27.0 30.4 19.4 63 4.9 CALM 0 0 0 0 1011.9 1011.9 0.0
23/10:00pm 27.3 30.4 18.6 59 5.6 CALM 0 0 0 0 1012.0 1012.0 0.0
23/09:30pm 28.3 30.8 18.1 54 6.5 SSE 2 7 1 4 1012.0 1012.0 0.0
23/09:00pm 29.2 30.3 18.0 51 7.1 SW 9 11 5 6 1011.8 1011.8 0.0
23/08:30pm 30.5 31.9 17.9 47 8.1 NNW 7 9 4 5 1011.9 1011.9 0.0
23/08:00pm 31.1 33.0 18.5 47 8.1 W 6 7 3 4 1011.8 1011.8 0.0
23/07:30pm 30.3 32.1 18.4 49 7.7 SSW 6 9 3 5 1011.5 1011.5 0.0
23/07:00pm 31.1 31.8 18.8 48 8.0 N 13 19 7 10 1011.0 1011.0 0.0
23/06:30pm 31.2 31.7 19.2 48 7.8 N 15 20 8 11 1010.9 1010.9 0.0
23/06:00pm 31.2 32.3 20.5 53 7.1 N 15 20 8 11 1010.5 1010.5 0.0
23/05:30pm 31.8 32.9 21.3 53 7.1 N 17 22 9 12 1010.0 1010.0 0.0
23/05:00pm 32.4 33.5 21.9 54 7.1 N 19 26 10 14 1009.7 1009.7 0.0
23/04:30pm 33.6 33.1 20.7 46 8.6 N 24 32 13 17 1009.5 1009.5 0.0
23/04:00pm 35.3 36.0 20.4 41 10.0 N 17 28 9 15 1009.1 1009.1 0.0
23/03:30pm 36.2 36.5 18.7 35 11.5 NE 15 20 8 11 1008.7 1008.7 0.0
23/03:00pm 37.0 36.2 17.1 31 12.9 ENE 17 24 9 13 1008.5 1008.5 0.0
23/02:30pm 37.2 36.4 17.2 30 12.9 NE 17 24 9 13 1008.6 1008.6 0.0
23/02:00pm 37.2 36.1 17.2 30 12.9 ENE 19 26 10 14 1008.7 1008.7 0.0
23/01:30pm 37.0 37.4 18.1 33 12.4 NE 13 24 7 13 1008.9 1008.9 0.0
23/01:00pm 36.0 36.0 18.1 34 11.7 ENE 15 19 8 10 1009.4 1009.4 0.0
23/12:30pm 36.5 37.1 18.6 35 11.8 ENE 13 20 7 11 1009.7 1009.7 0.0
23/12:00pm 37.1 38.1 19.5 35 11.7 NE 13 26 7 14 1010.1 1010.1 0.0
23/11:30am 35.6 36.8 19.1 38 10.9 E 11 20 6 11 1010.8 1010.8 0.0
23/11:00am 35.7 36.7 18.7 36 11.2 ENE 11 24 6 13 1011.3 1011.3 0.0
23/10:30am 35.8 36.7 19.3 38 10.9 N 13 19 7 10 1011.7 1011.7 0.0
23/10:00am 34.9 36.5 20.8 43 9.5 SE 13 20 7 11 1012.1 1012.1 0.0
23/09:30am 33.8 36.6 21.6 49 8.3 SSE 9 13 5 7 1012.4 1012.4 0.0
23/09:00am 33.1 36.1 21.9 51 7.6 SSE 9 13 5 7 1012.6 1012.6 0.0
23/08:30am 32.1 36.0 22.5 57 6.6 S 6 7 3 4 1012.4 1012.4 0.0
23/08:00am 31.2 35.3 23.0 61 5.6 S 6 13 3 7 1012.1 1012.1 0.0
23/07:30am 30.1 34.9 23.5 67 4.6 ESE 4 7 2 4 1011.8 1011.8 0.0
23/07:00am 28.9 34.2 23.1 71 4.0 CALM 0 0 0 0 1011.4 1011.4 0.0
23/06:30am 27.2 32.6 23.2 79 2.7 CALM 0 0 0 0 1011.1 1011.1 0.0
23/06:00am 25.1 29.7 21.8 82 2.2 CALM 0 0 0 0 1010.8 1010.8 0.0
23/05:30am 24.7 28.6 21.8 84 1.9 N 4 7 2 4 1010.5 1010.5 0.0
23/05:00am 24.8 29.1 21.1 80 2.4 CALM 0 0 0 0 1010.3 1010.3 0.0
23/04:30am 25.4 28.5 21.5 79 2.6 NNW 7 11 4 6 1010.1 1010.1 0.0
23/04:00am 26.3 29.4 21.5 75 3.2 W 7 9 4 5 1010.0 1010.0 0.0
23/03:30am 26.1 29.2 21.5 76 3.1 WNW 7 7 4 4 1009.9 1009.9 0.0
23/03:00am 26.3 30.1 22.4 79 2.6 WNW 6 7 3 4 1009.8 1009.8 0.0
23/02:30am 26.0 29.2 21.7 77 2.9 WNW 7 9 4 5 1009.9 1009.9 0.0
23/02:00am 26.2 31.2 22.5 80 2.5 CALM 0 0 0 0 1010.0 1010.0 0.0
23/01:30am 26.2 31.2 22.5 80 2.5 CALM 0 0 0 0 1010.1 1010.1 0.0
23/01:00am 26.7 32.0 23.0 80 2.5 CALM 0 0 0 0 1010.3 1010.3 0.0
23/12:30am 27.0 31.9 23.0 79 2.7 E 2 7 1 4 1010.6 1010.6 0.0
23/12:00am 27.2 31.3 23.0 78 2.9 ENE 6 7 3 4 1010.7 1010.7 0.0
 
Date/Time
WST
Temp
°C
App
Temp
°C
Dew
Point
°C
Rel
Hum
%
Delta-T
°C
Wind Press
QNH
hPa
Press
MSL
hPa
Rain since
9am
mm
Dir  Spd
km/h
Gust
km/h
Spd
kts
Gust
kts
22/11:30pm 27.4 31.1 23.2 78 2.9 E 9 11 5 6 1010.9 1010.9 0.0
22/11:00pm 27.7 32.3 23.1 76 3.1 NNE 4 7 2 4 1011.1 1011.1 0.0
22/10:30pm 28.0 31.4 22.7 73 3.6 ESE 9 11 5 6 1011.1 1011.1 0.0
22/10:00pm 28.2 31.1 21.7 68 4.4 E 9 11 5 6 1011.2 1011.2 0.0
22/09:30pm 28.6 32.8 20.9 63 5.1 CALM 0 0 0 0 1011.3 1011.3 0.0
22/09:00pm 29.1 33.1 20.5 59 5.7 CALM 0 0 0 0 1011.5 1011.5 0.0
22/08:30pm 30.4 34.6 20.9 57 6.3 CALM 0 0 0 0 1011.6 1011.6 0.0
22/08:00pm 31.0 34.4 20.9 55 6.7 WNW 4 7 2 4 1011.4 1011.4 0.0
22/07:30pm 32.1 35.2 21.0 52 7.4 WNW 6 13 3 7 1011.1 1011.1 0.0
22/07:00pm 32.0 36.0 20.6 51 7.6 CALM 0 0 0 0 1010.6 1010.6 0.0
22/06:30pm 32.1 34.8 20.7 51 7.6 N 7 9 4 5 1010.0 1010.0 0.0
22/06:00pm 32.8 34.4 20.0 47 8.5 NE 11 17 6 9 1009.5 1009.5 0.0
22/05:30pm 33.4 34.5 18.0 40 9.9 ENE 9 13 5 7 1009.0 1009.0 0.0
22/05:00pm 34.5 35.1 17.7 37 10.9 NE 11 17 6 9 1008.9 1008.9 0.0
22/04:30pm 35.8 35.9 17.5 34 11.8 ENE 13 19 7 10 1008.5 1008.5 0.0
22/04:00pm 36.7 36.0 17.3 31 12.6 E 17 24 9 13 1008.2 1008.2 0.0
22/03:30pm 37.1 36.5 17.6 31 12.7 E 17 24 9 13 1007.9 1007.9 0.0
22/03:00pm 37.6 37.6 18.1 32 12.8 E 15 22 8 12 1007.9 1007.9 0.0
22/02:30pm 37.2 36.3 17.7 31 12.7 E 19 26 10 14 1008.2 1008.2 0.0
22/02:00pm 36.9 36.5 18.0 33 12.4 NE 17 24 9 13 1008.4 1008.4 0.0
22/01:30pm 37.2 37.5 18.7 33 12.2 ENE 15 22 8 12 1008.8 1008.8 0.0
22/01:00pm 36.7 38.1 18.7 34 11.9 NE 9 17 5 9 1009.2 1009.2 0.0
22/12:30pm 37.1 37.1 18.1 32 12.4 E 15 24 8 13 1009.6 1009.6 0.0
22/12:00pm 36.5 37.5 18.6 35 11.8 ENE 11 20 6 11 1009.9 1009.9 0.0
22/11:30am 36.8 37.7 18.4 34 12.1 SSW 11 17 6 9 1010.4 1010.4 0.0
22/11:00am 35.9 37.8 19.8 39 10.7 NE 9 15 5 8 1011.0 1011.0 0.0
22/10:30am 35.4 37.8 20.1 40 10.2 ESE 7 15 4 8 1011.4 1011.4 0.0
22/10:00am 34.8 37.6 20.4 43 9.7 SSE 6 13 3 7 1011.8 1011.8 0.0
22/09:30am 34.1 37.6 22.2 50 8.1 WSW 7 13 4 7 1012.1 1012.1 0.0
22/09:00am 33.0 36.6 22.4 53 7.3 SW 7 11 4 6 1012.3 1012.3 0.0
22/08:30am 31.8 35.3 22.8 59 6.2 SSW 9 15 5 8 1012.5 1012.5 0.0
22/08:00am 30.7 34.2 22.8 62 5.4 WSW 9 13 5 7 1012.5 1012.5 0.0
22/07:30am 29.8 35.1 23.0 67 4.7 CALM 0 0 0 0 1012.2 1012.2 0.0
22/07:00am 28.6 33.9 23.1 72 3.8 CALM 0 4 0 2 1012.1 1012.1 0.0
22/06:30am 27.2 31.9 22.6 76 3.1 W 2 7 1 4 1011.9 1011.9 0.0
22/06:00am 25.4 30.0 21.7 80 2.5 CALM 0 0 0 0 1011.5 1011.5 0.0
22/05:30am 25.2 29.7 21.5 80 2.5 CALM 0 0 0 0 1011.2 1011.2 0.0
22/05:00am 25.5 30.4 22.4 83 2.1 CALM 0 0 0 0 1010.9 1010.9 0.0
22/04:30am 25.5 30.3 22.2 82 2.2 CALM 0 0 0 0 1010.6 1010.6 0.0
22/04:00am 25.5 29.2 22.2 82 2.2 NNE 6 7 3 4 1010.5 1010.5 0.0
22/03:30am 25.8 29.9 22.3 81 2.3 N 4 7 2 4 1010.5 1010.5 0.0
22/03:00am 26.0 31.0 22.5 81 2.4 CALM 0 0 0 0 1010.4 1010.4 0.0
22/02:30am 25.6 29.1 21.9 80 2.5 NW 6 7 3 4 1010.4 1010.4 0.0
22/02:00am 26.1 30.8 22.0 78 2.7 CALM 0 0 0 0 1010.4 1010.4 0.0
22/01:30am 25.7 29.4 22.6 83 2.1 N 7 9 4 5 1010.4 1010.4 0.0
22/01:00am 26.0 30.1 22.9 83 2.1 ENE 6 6 3 3 1010.6 1010.6 0.0
22/12:30am 26.6 30.8 23.5 83 2.1 E 7 9 4 5 1011.0 1011.0 0.0
22/12:00am 26.7 30.5 23.4 82 2.3 ENE 9 11 5 6 1011.2 1011.2 0.0
 
Date/Time
WST
Temp
°C
App
Temp
°C
Dew
Point
°C
Rel
Hum
%
Delta-T
°C
Wind Press
QNH
hPa
Press
MSL
hPa
Rain since
9am
mm
Dir  Spd
km/h
Gust
km/h
Spd
kts
Gust
kts
21/11:30pm 27.4 30.8 23.4 79 2.7 E 11 13 6 7 1011.5 1011.5 0.0
21/11:00pm 27.2 30.3 22.8 77 3.0 ESE 11 13 6 7 1011.8 1011.8 0.0
21/10:30pm 27.3 30.6 21.8 72 3.7 ENE 7 9 4 5 1011.7 1011.7 0.0
21/10:00pm 27.7 31.0 21.5 69 4.1 ENE 6 7 3 4 1011.7 1011.7 0.0
21/09:30pm 28.1 32.0 20.4 63 5.1 CALM 0 0 0 0 1011.8 1011.8 0.0
21/09:00pm 29.3 31.8 20.2 58 6.0 SW 7 9 4 5 1011.9 1011.9 0.0
21/08:30pm 29.4 31.9 20.3 58 6.0 SE 7 9 4 5 1011.8 1011.8 0.0
21/08:00pm 30.2 33.4 20.4 55 6.5 E 4 7 2 4 1011.7 1011.7 0.0
21/07:30pm 30.6 34.9 21.1 57 6.4 CALM 0 0 0 0 1011.5 1011.5 0.0
21/07:00pm 31.5 33.2 21.7 56 6.6 N 15 20 8 11 1011.1 1011.1 0.0
21/06:30pm 31.6 33.7 21.7 55 6.7 NNW 13 17 7 9 1010.6 1010.6 0.0
21/06:00pm 32.3 33.6 20.9 51 7.6 N 15 20 8 11 1010.2 1010.2 0.0
21/05:30pm 33.0 34.6 19.1 43 9.1 NNE 9 11 5 6 1009.8 1009.8 0.0
21/05:00pm 34.8 35.1 17.1 35 11.4 ENE 11 15 6 8 1009.6 1009.6 0.0
21/04:30pm 36.0 36.2 16.7 31 12.3 NE 11 17 6 9 1009.1 1009.1 0.0
21/04:00pm 37.0 36.7 16.5 29 13.1 ENE 13 19 7 10 1008.9 1008.9 0.0
21/03:30pm 37.2 37.0 16.7 29 13.2 ENE 13 22 7 12 1008.7 1008.7 0.0
21/03:00pm 37.2 36.2 16.7 29 13.2 ENE 17 24 9 13 1008.6 1008.6 0.0
21/02:30pm 37.6 36.8 17.1 30 13.2 ESE 17 26 9 14 1008.7 1008.7 0.0
21/02:00pm 38.0 37.3 17.4 29 13.4 ESE 17 24 9 13 1008.9 1008.9 0.0
21/01:30pm 37.3 37.1 16.8 29 13.2 E 13 24 7 13 1009.1 1009.1 0.0
21/01:00pm 37.3 36.6 17.3 30 13.0 ESE 17 26 9 14 1009.5 1009.5 0.0
21/12:30pm 37.4 38.3 18.4 32 12.5 ESE 11 19 6 10 1009.9 1009.9 0.0
21/12:00pm 37.8 38.3 19.2 33 12.4 ESE 15 24 8 13 1010.3 1010.3 0.0
21/11:30am 36.7 36.8 18.3 34 12.1 ENE 15 26 8 14 1010.8 1010.8 0.0

Other Formats:

Comma delimited format used in spreadsheet applications
http://www.bom.gov.au/fwo/IDW60801/IDW60801.95214.axf

JavaScript Object Notation format (JSON) in row-major order
http://www.bom.gov.au/fwo/IDW60801/IDW60801.95214.json